Time;durP1;ratioP1;P1;durP2;ratioP2;P2;SDS_P1;SDS_P2;PMS_P1;PMS_P2;Temp;Humidity;BMP_temperature;BMP_pressure;BME280_temperature;BME280_humidity;BME280_pressure;Samples;Min_cycle;Max_cycle;Signal;HPM_P1;HPM_P2
2022/06/30 00:01:40;;;;;;;;;0.00;0.00;;;;;20.76;46.66;100636.44;5033428;28;45342;-63
2022/06/30 00:04:05;;;;;;;;;0.75;0.75;;;;;20.72;46.97;100631.47;5031240;28;46759;-63
2022/06/30 00:06:31;;;;;;;;;1.00;0.00;;;;;20.66;46.13;100628.28;5028912;28;45623;-63
2022/06/30 00:08:57;;;;;;;;;0.00;0.00;;;;;20.66;45.98;100628.28;5030814;28;47038;-63
2022/06/30 00:11:23;;;;;;;;;0.00;0.00;;;;;20.64;46.08;100627.50;5029973;28;45236;-62
2022/06/30 00:13:49;;;;;;;;;0.00;0.00;;;;;20.61;46.49;100630.41;5023306;28;46801;-64
2022/06/30 00:16:14;;;;;;;;;0.75;0.00;;;;;20.56;46.85;100637.81;5027702;28;45264;-63
2022/06/30 00:18:40;;;;;;;;;0.00;0.00;;;;;20.50;47.41;100635.59;5040404;28;45418;-62
2022/06/30 00:21:05;;;;;;;;;1.00;0.75;;;;;20.43;47.14;100645.81;5033468;28;45553;-63
2022/06/30 00:23:31;;;;;;;;;0.50;0.00;;;;;20.33;48.23;100642.09;5015404;28;46857;-63
2022/06/30 00:25:57;;;;;;;;;1.00;1.00;;;;;20.24;47.73;100648.06;5019845;28;45872;-63
2022/06/30 00:28:22;;;;;;;;;0.00;0.00;;;;;20.17;47.38;100644.09;5033429;28;45426;-63
2022/06/30 00:30:49;;;;;;;;;1.00;1.00;;;;;20.16;47.46;100640.59;5036417;28;45388;-63
2022/06/30 00:33:15;;;;;;;;;0.25;0.25;;;;;20.15;46.48;100635.38;5036645;28;46938;-63
2022/06/30 00:35:40;;;;;;;;;0.00;0.00;;;;;20.08;47.31;100643.78;5039753;28;45383;-64
2022/06/30 00:38:06;;;;;;;;;0.50;0.50;;;;;20.05;48.20;100646.66;5035215;28;45529;-61
2022/06/30 00:40:39;;;;;;;;;0.00;0.00;;;;;20.04;49.09;100654.72;5039460;28;45469;-62
2022/06/30 00:43:05;;;;;;;;;1.00;1.00;;;;;20.02;48.27;100651.31;5031132;28;46515;-62
2022/06/30 00:45:30;;;;;;;;;1.00;1.00;;;;;19.97;47.67;100654.28;5022052;28;45335;-62
2022/06/30 00:47:56;;;;;;;;;0.00;0.00;;;;;19.96;47.63;100665.03;5033878;28;45767;-63
2022/06/30 00:50:21;;;;;;;;;0.00;0.00;;;;;19.91;47.27;100660.84;5029783;28;54046;-63
2022/06/30 00:52:50;;;;;;;;;1.00;1.00;;;;;19.87;48.86;100663.84;5027587;28;46611;-63
2022/06/30 00:55:18;;;;;;;;;1.00;1.00;;;;;19.82;47.34;100657.97;5036063;28;45474;-62
2022/06/30 00:57:44;;;;;;;;;1.25;0.75;;;;;19.78;47.99;100657.34;5028444;28;45367;-64
2022/06/30 01:00:11;;;;;;;;;3.00;1.75;;;;;19.71;48.74;100656.84;5033505;28;45623;-63
2022/06/30 01:02:36;;;;;;;;;0.50;0.50;;;;;19.65;49.30;100659.06;5040817;28;46620;-63
2022/06/30 01:05:03;;;;;;;;;0.75;0.75;;;;;19.56;48.33;100646.41;5046467;28;45330;-63
2022/06/30 01:07:29;;;;;;;;;0.00;0.00;;;;;19.51;48.02;100644.03;5021522;28;45404;-62
2022/06/30 01:12:44;;;;;;;;;0.25;0.25;;;;;19.47;48.45;100643.41;5037555;28;45398;-63
2022/06/30 01:15:20;;;;;;;;;0.25;0.00;;;;;19.47;48.45;100639.91;5038210;28;45340;-62
2022/06/30 01:17:47;;;;;;;;;1.00;1.00;;;;;19.44;48.85;100634.78;5028488;28;45576;-62
2022/06/30 01:20:13;;;;;;;;;2.00;0.00;;;;;19.44;48.88;100633.00;5022014;28;46017;-63
2022/06/30 01:22:39;;;;;;;;;0.75;0.75;;;;;19.49;49.38;100645.94;5033854;28;47806;-63
2022/06/30 01:25:06;;;;;;;;;3.25;0.75;;;;;19.48;48.49;100653.06;5030866;28;46708;-64
2022/06/30 01:27:32;;;;;;;;;0.00;0.00;;;;;19.42;49.46;100645.50;5033679;28;45308;-63
2022/06/30 01:30:01;;;;;;;;;2.00;1.00;;;;;19.42;49.88;100644.66;5034923;28;45477;-63
2022/06/30 01:32:28;;;;;;;;;0.25;0.00;;;;;19.36;49.02;100632.66;5014462;28;47211;-62
2022/06/30 01:34:54;;;;;;;;;4.75;1.00;;;;;19.36;49.81;100632.66;5029752;28;46145;-63
2022/06/30 01:37:20;;;;;;;;;4.00;1.00;;;;;19.28;49.21;100630.50;5032357;28;45563;-63
2022/06/30 01:39:47;;;;;;;;;0.00;0.00;;;;;19.23;49.23;100643.22;5037991;28;45518;-63
2022/06/30 01:42:12;;;;;;;;;1.50;1.00;;;;;19.20;49.66;100637.25;5039017;28;46969;-63
2022/06/30 01:44:38;;;;;;;;;2.00;1.00;;;;;19.15;49.11;100629.59;5029893;28;71164;-62
2022/06/30 01:47:03;;;;;;;;;2.00;0.75;;;;;19.12;50.23;100637.72;5028891;28;64292;-63
2022/06/30 01:49:29;;;;;;;;;4.00;1.00;;;;;19.06;50.08;100652.25;5029191;28;45550;-63
2022/06/30 01:51:54;;;;;;;;;3.75;0.50;;;;;18.98;51.35;100641.25;5028484;28;45381;-63
2022/06/30 01:54:19;;;;;;;;;2.00;1.00;;;;;18.91;51.58;100643.47;5027370;28;65989;-63
2022/06/30 01:56:45;;;;;;;;;0.50;0.00;;;;;18.85;52.14;100658.91;5034267;28;46698;-62
2022/06/30 01:59:11;;;;;;;;;3.50;1.25;;;;;18.79;51.07;100654.81;5031893;28;45485;-62
2022/06/30 02:01:36;;;;;;;;;2.75;2.00;;;;;18.71;52.17;100636.72;5035091;28;46444;-62
2022/06/30 02:06:46;;;;;;;;;1.00;1.00;;;;;18.67;51.52;100650.28;5024951;28;45318;-63
2022/06/30 02:09:11;;;;;;;;;4.00;1.25;;;;;18.65;51.91;100655.69;5032176;28;54660;-62
2022/06/30 02:11:36;;;;;;;;;1.00;1.00;;;;;18.64;52.61;100658.41;5030724;28;65669;-62
2022/06/30 02:14:02;;;;;;;;;2.25;1.25;;;;;18.57;51.45;100663.25;5031894;28;63895;-62
2022/06/30 02:16:27;;;;;;;;;3.00;1.00;;;;;18.53;51.73;100651.13;5032244;28;45414;-62
2022/06/30 02:18:53;;;;;;;;;1.00;1.00;;;;;18.47;54.35;100639.13;5029641;28;68586;-62
2022/06/30 02:21:18;;;;;;;;;3.00;1.50;;;;;18.42;54.43;100629.75;5032559;28;68910;-62
2022/06/30 02:23:44;;;;;;;;;1.00;1.00;;;;;18.39;53.20;100628.13;5027757;28;69134;-62
2022/06/30 02:26:09;;;;;;;;;1.25;1.00;;;;;18.36;53.05;100631.84;5031715;28;45357;-62
2022/06/30 02:28:34;;;;;;;;;1.00;1.00;;;;;18.36;52.67;100626.53;5027993;28;58839;-62
2022/06/30 02:31:00;;;;;;;;;3.00;2.00;;;;;18.39;52.77;100617.53;5035165;28;77027;-62
2022/06/30 02:33:25;;;;;;;;;2.25;2.00;;;;;18.44;52.07;100625.22;5036091;28;65587;-62
2022/06/30 02:35:50;;;;;;;;;2.00;2.00;;;;;18.48;52.36;100627.56;5034620;28;71204;-62
2022/06/30 02:38:16;;;;;;;;;2.00;2.00;;;;;18.51;52.53;100630.03;5038159;28;45676;-62
2022/06/30 02:40:41;;;;;;;;;2.25;0.75;;;;;18.55;52.61;100630.69;5035476;28;67330;-62
2022/06/30 02:43:06;;;;;;;;;1.50;1.00;;;;;18.54;51.78;100635.16;5037848;28;73070;-62
2022/06/30 02:45:32;;;;;;;;;1.00;1.00;;;;;18.56;51.44;100641.19;5028139;28;45297;-62
2022/06/30 02:47:58;;;;;;;;;3.75;1.75;;;;;18.60;51.92;100637.41;5027619;28;64216;-62
2022/06/30 02:50:24;;;;;;;;;4.50;2.00;;;;;18.64;51.83;100635.41;5035839;28;46675;-62
2022/06/30 02:52:49;;;;;;;;;1.25;1.25;;;;;18.67;51.66;100640.53;5030081;28;45331;-62
2022/06/30 02:55:15;;;;;;;;;2.75;2.00;;;;;18.72;50.86;100650.84;5032289;28;58006;-62
2022/06/30 02:57:40;;;;;;;;;2.00;2.00;;;;;18.72;51.03;100648.22;5029381;28;45530;-62
2022/06/30 03:00:08;;;;;;;;;2.75;1.50;;;;;18.72;50.78;100645.56;5036218;28;46930;-63
2022/06/30 03:02:34;;;;;;;;;2.00;1.00;;;;;18.74;51.23;100644.50;5028235;28;46042;-63
2022/06/30 03:04:59;;;;;;;;;1.00;1.00;;;;;18.74;51.04;100647.16;5028825;28;45766;-62
2022/06/30 03:07:25;;;;;;;;;1.50;1.00;;;;;18.75;50.77;100637.38;5033315;28;45410;-62
2022/06/30 03:09:50;;;;;;;;;1.00;1.00;;;;;18.79;50.50;100645.06;5032707;28;64854;-62
2022/06/30 03:12:15;;;;;;;;;1.75;1.00;;;;;18.81;50.59;100646.78;5035337;28;45340;-63
2022/06/30 03:14:41;;;;;;;;;1.00;1.00;;;;;18.80;50.70;100651.22;5036823;27;45336;-62
2022/06/30 03:17:06;;;;;;;;;3.50;1.00;;;;;18.83;50.52;100663.47;5032131;28;55746;-62
2022/06/30 03:19:31;;;;;;;;;2.25;1.75;;;;;18.84;50.54;100660.72;5034576;28;60229;-62
2022/06/30 03:21:57;;;;;;;;;1.00;1.00;;;;;18.85;50.66;100651.81;5029357;28;45442;-62
2022/06/30 03:24:22;;;;;;;;;3.00;1.50;;;;;18.87;50.98;100657.84;5032019;28;48951;-63
2022/06/30 03:26:48;;;;;;;;;4.00;1.00;;;;;18.87;50.93;100649.91;5026781;28;60961;-62
2022/06/30 03:29:14;;;;;;;;;2.00;2.00;;;;;18.87;50.95;100638.44;5028510;28;45414;-62
2022/06/30 03:31:39;;;;;;;;;1.00;1.00;;;;;18.87;50.94;100631.34;5037600;28;45458;-62
2022/06/30 03:34:04;;;;;;;;;1.75;1.25;;;;;18.87;50.79;100635.81;5036096;28;45404;-62
2022/06/30 03:36:30;;;;;;;;;2.00;2.00;;;;;18.87;50.66;100641.09;5033799;28;59733;-62
2022/06/30 03:38:55;;;;;;;;;3.00;1.00;;;;;18.84;50.95;100649.25;5034457;28;51149;-62
2022/06/30 03:41:21;;;;;;;;;2.75;1.25;;;;;18.78;50.66;100661.91;5035601;28;52883;-62
2022/06/30 03:43:46;;;;;;;;;3.25;2.00;;;;;18.77;50.61;100654.06;5030823;28;45548;-62
2022/06/30 03:46:11;;;;;;;;;3.00;1.25;;;;;18.75;51.12;100650.63;5028221;28;45423;-62
2022/06/30 03:48:37;;;;;;;;;3.00;2.00;;;;;18.75;51.34;100664.78;5032301;28;69958;-63
2022/06/30 03:51:03;;;;;;;;;1.25;1.25;;;;;18.73;51.26;100671.97;5040490;28;56609;-62
2022/06/30 03:53:28;;;;;;;;;3.75;2.00;;;;;18.74;51.28;100665.69;5032770;28;45391;-63
2022/06/30 03:55:54;;;;;;;;;2.00;2.00;;;;;18.76;51.40;100666.47;5035711;28;45637;-62
2022/06/30 03:58:19;;;;;;;;;3.25;2.00;;;;;18.81;51.33;100668.00;5030767;28;45313;-62
2022/06/30 04:00:45;;;;;;;;;2.50;1.75;;;;;18.85;51.16;100680.97;5034975;28;58388;-63
2022/06/30 04:03:10;;;;;;;;;3.50;2.00;;;;;18.84;51.59;100678.41;5033909;28;45232;-62
2022/06/30 04:05:36;;;;;;;;;2.50;1.00;;;;;18.81;51.87;100671.47;5036576;28;45477;-65
2022/06/30 04:08:01;;;;;;;;;2.00;2.00;;;;;18.78;50.95;100676.97;5028582;28;46069;-62
2022/06/30 04:10:27;;;;;;;;;4.00;1.00;;;;;18.72;52.33;100677.38;5036821;28;45383;-62
2022/06/30 04:12:52;;;;;;;;;2.25;1.75;;;;;18.65;51.76;100682.19;5033967;28;45423;-62
2022/06/30 04:15:17;;;;;;;;;2.00;2.00;;;;;18.61;51.87;100683.34;5030331;28;45433;-62
2022/06/30 04:17:43;;;;;;;;;1.75;1.00;;;;;18.60;52.38;100674.50;5029885;28;66537;-62
2022/06/30 04:20:18;;;;;;;;;1.50;1.00;;;;;18.64;52.77;100666.38;5039482;28;45323;-63
2022/06/30 04:22:46;;;;;;;;;4.00;2.00;;;;;18.62;53.16;100669.13;5036593;28;45466;-62
2022/06/30 04:25:11;;;;;;;;;2.75;2.00;;;;;18.58;53.72;100670.25;5033444;28;45545;-62
2022/06/30 04:27:40;;;;;;;;;4.75;3.75;;;;;18.60;54.22;100676.31;5033523;28;46405;-62
2022/06/30 04:30:06;;;;;;;;;4.00;3.00;;;;;18.59;53.18;100678.13;5034936;28;45705;-62
2022/06/30 04:32:37;;;;;;;;;4.25;2.75;;;;;18.56;53.58;100678.31;5037512;28;45466;-62
2022/06/30 04:35:05;;;;;;;;;4.25;2.00;;;;;18.55;53.79;100687.19;5042187;28;45383;-62
2022/06/30 04:37:30;;;;;;;;;5.50;2.00;;;;;18.50;53.80;100678.69;5039566;28;46070;-59
2022/06/30 04:42:39;;;;;;;;;3.00;3.00;;;;;18.51;54.26;100690.97;5037916;28;45410;-60
2022/06/30 04:45:06;;;;;;;;;2.00;1.00;;;;;18.50;54.48;100699.91;5034294;28;62850;-60
2022/06/30 04:47:31;;;;;;;;;2.75;2.50;;;;;18.52;55.06;100700.66;5027432;28;45379;-60
2022/06/30 04:49:57;;;;;;;;;4.00;1.75;;;;;18.55;54.80;100702.25;5042250;28;45938;-60
2022/06/30 04:52:22;;;;;;;;;3.25;2.00;;;;;18.52;54.66;100694.47;5033486;28;68310;-60
2022/06/30 04:54:47;;;;;;;;;5.50;2.50;;;;;18.48;54.88;100682.38;5033747;28;70251;-60
2022/06/30 04:57:12;;;;;;;;;6.00;3.00;;;;;18.48;54.87;100685.00;5035303;28;75464;-61
2022/06/30 04:59:38;;;;;;;;;3.00;1.75;;;;;18.47;55.27;100689.47;5033420;28;45474;-60
2022/06/30 05:02:03;;;;;;;;;3.00;2.75;;;;;18.44;55.04;100668.44;5030180;28;45459;-60
2022/06/30 05:04:29;;;;;;;;;3.00;3.00;;;;;18.43;55.42;100665.91;5034761;28;45579;-60
2022/06/30 05:06:54;;;;;;;;;2.25;2.25;;;;;18.40;55.62;100659.84;5038699;28;75597;-60
2022/06/30 05:09:20;;;;;;;;;3.00;3.00;;;;;18.36;55.39;100649.50;5027995;28;68475;-61
2022/06/30 05:11:45;;;;;;;;;2.75;2.00;;;;;18.32;55.16;100648.84;5029096;28;45277;-60
2022/06/30 05:14:10;;;;;;;;;2.25;2.25;;;;;18.31;54.90;100643.63;5035177;28;45389;-60
2022/06/30 05:16:36;;;;;;;;;5.00;3.00;;;;;18.26;56.01;100643.94;5031667;28;46042;-60
2022/06/30 05:19:01;;;;;;;;;4.00;2.50;;;;;18.25;55.75;100655.47;5034336;28;48535;-60
2022/06/30 05:21:26;;;;;;;;;9.50;4.00;;;;;18.25;55.30;100652.81;5034700;28;56728;-60
2022/06/30 05:26:36;;;;;;;;;3.25;2.75;;;;;18.27;55.78;100650.91;5035456;28;45275;-60
2022/06/30 05:29:01;;;;;;;;;5.25;3.75;;;;;18.26;55.32;100661.63;5034845;28;45486;-60
2022/06/30 05:31:27;;;;;;;;;6.25;3.00;;;;;18.25;55.84;100675.81;5033256;28;48431;-59
2022/06/30 05:33:52;;;;;;;;;4.00;2.50;;;;;18.25;56.18;100681.09;5034011;28;45296;-60
2022/06/30 05:36:18;;;;;;;;;3.00;3.00;;;;;18.26;56.20;100688.13;5037415;28;53127;-59
2022/06/30 05:38:43;;;;;;;;;3.25;3.00;;;;;18.23;55.70;100685.66;5038193;28;59749;-62
2022/06/30 05:41:08;;;;;;;;;4.00;3.00;;;;;18.16;55.68;100683.34;5038228;28;57043;-60
2022/06/30 05:43:34;;;;;;;;;2.75;2.75;;;;;18.16;55.64;100683.34;5028330;28;58623;-60
2022/06/30 05:45:59;;;;;;;;;3.25;2.00;;;;;18.18;55.79;100683.25;5034287;28;45502;-60
2022/06/30 05:48:24;;;;;;;;;2.50;2.50;;;;;18.19;56.10;100683.19;5032999;28;69898;-60
2022/06/30 05:50:50;;;;;;;;;4.50;3.25;;;;;18.19;56.01;100691.13;5035666;28;58430;-61
2022/06/30 05:53:16;;;;;;;;;3.50;3.00;;;;;18.19;56.14;100685.00;5036539;28;45396;-61
2022/06/30 05:55:41;;;;;;;;;2.75;2.75;;;;;18.18;56.68;100689.44;5037375;28;46173;-61
2022/06/30 05:58:06;;;;;;;;;3.75;3.50;;;;;18.22;56.18;100695.41;5027443;28;71947;-60
2022/06/30 06:00:32;;;;;;;;;4.00;4.00;;;;;18.25;56.35;100692.56;5035582;28;45525;-61
2022/06/30 06:02:57;;;;;;;;;4.00;1.25;;;;;18.30;56.34;100694.94;5026497;28;45674;-60
2022/06/30 06:05:23;;;;;;;;;5.75;3.75;;;;;18.32;56.62;100688.59;5039494;27;45953;-61
2022/06/30 06:07:49;;;;;;;;;3.00;3.00;;;;;18.33;56.63;100686.81;5038480;28;45475;-59
2022/06/30 06:10:15;;;;;;;;;3.00;3.00;;;;;18.33;56.75;100687.66;5031314;28;45533;-60
2022/06/30 06:12:43;;;;;;;;;8.75;7.00;;;;;18.35;57.07;100682.28;5025376;28;45434;-59
2022/06/30 06:15:12;;;;;;;;;14.25;11.25;;;;;18.31;56.68;100686.03;5033477;28;45442;-59
2022/06/30 06:17:43;;;;;;;;;9.25;6.25;;;;;18.32;56.97;100682.44;5036173;28;45943;-61
2022/06/30 06:20:10;;;;;;;;;5.25;4.00;;;;;18.33;57.03;100678.88;5033998;28;45385;-61
2022/06/30 06:22:35;;;;;;;;;3.25;3.25;;;;;18.31;57.77;100681.59;5035433;28;45340;-58
2022/06/30 06:25:00;;;;;;;;;5.75;3.25;;;;;18.26;57.22;100682.81;5035804;28;46094;-60
2022/06/30 06:27:26;;;;;;;;;5.00;3.50;;;;;18.24;57.26;100682.03;5031921;28;63881;-61
2022/06/30 06:29:51;;;;;;;;;2.25;2.25;;;;;18.24;57.06;100677.63;5029653;28;55982;-59
2022/06/30 06:32:16;;;;;;;;;5.75;5.00;;;;;18.28;57.34;100673.84;5035861;28;69862;-60
2022/06/30 06:34:42;;;;;;;;;5.00;3.75;;;;;18.32;56.91;100679.78;5033770;28;52943;-61
2022/06/30 06:37:07;;;;;;;;;3.00;3.00;;;;;18.35;57.07;100683.13;5028602;28;45448;-59
2022/06/30 06:39:33;;;;;;;;;3.50;3.50;;;;;18.34;57.17;100688.50;5029427;28;56812;-60
2022/06/30 06:41:58;;;;;;;;;4.50;4.00;;;;;18.31;57.45;100686.91;5034564;28;45643;-60
2022/06/30 06:44:23;;;;;;;;;3.75;2.50;;;;;18.32;57.51;100690.41;5033452;28;46007;-61
2022/06/30 06:46:49;;;;;;;;;6.00;3.50;;;;;18.35;57.25;100685.75;5033651;28;45283;-59
2022/06/30 06:49:14;;;;;;;;;4.25;2.75;;;;;18.37;57.55;100694.47;5027972;28;69238;-60
2022/06/30 06:51:39;;;;;;;;;9.75;5.00;;;;;18.40;57.43;100704.03;5035610;28;68993;-60
2022/06/30 06:54:05;;;;;;;;;44.00;33.25;;;;;18.46;57.93;100700.16;5034032;28;45821;-60
2022/06/30 06:56:30;;;;;;;;;32.00;17.00;;;;;18.50;58.11;100704.31;5021479;28;64427;-61
2022/06/30 06:58:55;;;;;;;;;24.50;10.75;;;;;18.56;57.89;100717.22;5031018;28;45484;-60
2022/06/30 07:01:21;;;;;;;;;20.50;11.50;;;;;18.59;57.02;100720.53;5021820;28;45397;-61
2022/06/30 07:03:46;;;;;;;;;7.00;7.00;;;;;18.61;58.45;100733.69;5031992;28;46220;-60
2022/06/30 07:06:12;;;;;;;;;8.00;5.00;;;;;18.58;57.60;100744.47;5031202;28;53141;-60
2022/06/30 07:08:37;;;;;;;;;6.00;5.75;;;;;18.52;57.85;100735.09;5028911;28;45608;-59
2022/06/30 07:11:03;;;;;;;;;5.25;5.25;;;;;18.55;57.93;100742.00;5032397;28;45553;-59
2022/06/30 07:13:29;;;;;;;;;9.00;5.00;;;;;18.57;57.64;100740.09;5029921;28;45850;-60
2022/06/30 07:15:55;;;;;;;;;8.50;4.00;;;;;18.54;57.47;100746.47;5032645;28;45472;-60
2022/06/30 07:18:20;;;;;;;;;5.00;3.25;;;;;18.54;57.72;100743.81;5030525;28;67324;-60
2022/06/30 07:20:46;;;;;;;;;5.00;4.00;;;;;18.49;57.38;100742.38;5030586;28;60985;-58
2022/06/30 07:23:11;;;;;;;;;6.00;5.00;;;;;18.44;57.36;100733.84;5030050;28;45375;-59
2022/06/30 07:25:37;;;;;;;;;7.25;4.00;;;;;18.45;57.82;100741.72;5039278;28;45500;-60
2022/06/30 07:28:03;;;;;;;;;6.50;5.25;;;;;18.40;58.10;100743.78;5032249;28;67646;-60
2022/06/30 07:30:29;;;;;;;;;21.75;15.25;;;;;18.37;58.37;100750.09;5035594;28;45303;-60
2022/06/30 07:32:54;;;;;;;;;6.50;6.00;;;;;18.38;58.48;100733.28;5034314;28;47111;-60
2022/06/30 07:35:19;;;;;;;;;7.75;4.75;;;;;18.42;58.59;100752.50;5037641;28;61637;-59
2022/06/30 07:37:45;;;;;;;;;8.75;4.25;;;;;18.45;58.73;100752.31;5030713;28;45246;-59
2022/06/30 07:40:12;;;;;;;;;4.75;4.75;;;;;18.46;58.78;100742.56;5033173;28;73332;-59
2022/06/30 07:42:38;;;;;;;;;7.50;4.50;;;;;18.47;58.63;100729.22;5039310;28;46135;-60
2022/06/30 07:45:04;;;;;;;;;9.75;5.25;;;;;18.48;58.50;100722.97;5039335;28;45257;-60
2022/06/30 07:47:30;;;;;;;;;6.00;4.00;;;;;18.48;58.71;100730.91;5034527;28;45529;-59
2022/06/30 07:49:55;;;;;;;;;9.75;5.25;;;;;18.43;58.34;100725.03;5031821;28;66441;-59
2022/06/30 07:52:20;;;;;;;;;8.00;3.50;;;;;18.44;59.12;100725.91;5034871;28;76374;-59
2022/06/30 07:54:46;;;;;;;;;3.25;3.25;;;;;18.40;58.00;100736.69;5037748;28;45299;-60
2022/06/30 07:57:12;;;;;;;;;5.75;3.25;;;;;18.34;58.17;100742.34;5036405;28;45698;-60
2022/06/30 07:59:38;;;;;;;;;4.50;3.75;;;;;18.33;58.09;100745.09;5033913;28;45299;-60
2022/06/30 08:02:04;;;;;;;;;7.25;4.00;;;;;18.32;58.28;100740.72;5054543;28;46512;-60
2022/06/30 08:04:29;;;;;;;;;8.25;4.25;;;;;18.30;57.94;100737.31;5034312;28;45501;-60
2022/06/30 08:06:55;;;;;;;;;2.75;2.75;;;;;18.27;58.11;100740.16;5035411;28;62064;-62
2022/06/30 08:09:20;;;;;;;;;5.00;3.75;;;;;18.27;57.86;100735.69;5039118;28;67378;-62
2022/06/30 08:11:45;;;;;;;;;5.25;3.25;;;;;18.25;58.60;100728.78;5032699;28;71243;-60
2022/06/30 08:14:11;;;;;;;;;14.00;11.75;;;;;18.23;58.88;100735.97;5033958;28;45623;-60
2022/06/30 08:16:36;;;;;;;;;8.50;4.50;;;;;18.17;58.23;100729.25;5038316;28;49748;-60
2022/06/30 08:19:03;;;;;;;;;6.00;4.50;;;;;18.15;58.69;100725.81;5031674;28;68915;-60
2022/06/30 08:21:29;;;;;;;;;5.75;5.25;;;;;18.14;59.41;100729.44;5028399;28;46343;-60
2022/06/30 08:23:54;;;;;;;;;5.75;4.25;;;;;18.06;59.97;100731.66;5035024;28;45771;-60
2022/06/30 08:26:20;;;;;;;;;5.00;3.00;;;;;17.98;58.75;100732.13;5038259;28;45493;-60
2022/06/30 08:28:45;;;;;;;;;4.00;3.00;;;;;17.93;58.41;100721.78;5033898;28;45427;-60
2022/06/30 08:31:11;;;;;;;;;3.00;3.00;;;;;17.86;58.14;100720.44;5029115;28;45281;-61
2022/06/30 08:33:37;;;;;;;;;9.00;4.00;;;;;17.82;59.83;100718.88;5036149;28;45358;-58
2022/06/30 08:36:02;;;;;;;;;4.50;3.50;;;;;17.79;60.50;100725.19;5016515;28;45515;-61
2022/06/30 08:38:28;;;;;;;;;5.00;2.00;;;;;17.71;57.71;100718.66;5030060;28;45566;-61
2022/06/30 08:43:38;;;;;;;;;1.00;1.00;;;;;17.42;57.88;100729.06;5033500;28;45332;-61
2022/06/30 08:46:03;;;;;;;;;1.75;1.75;;;;;17.35;58.71;100733.00;5032170;28;45473;-61
2022/06/30 08:48:30;;;;;;;;;3.00;3.00;;;;;17.28;58.37;100735.13;5034261;28;45451;-60
2022/06/30 08:51:04;;;;;;;;;5.25;3.25;;;;;17.24;60.40;100721.22;5035366;28;46096;-60
2022/06/30 08:53:36;;;;;;;;;5.50;3.00;;;;;17.21;59.49;100717.88;5037488;28;45702;-59
2022/06/30 08:56:02;;;;;;;;;5.00;2.00;;;;;17.24;60.41;100715.06;5012823;28;45384;-59
2022/06/30 08:58:27;;;;;;;;;4.75;2.25;;;;;17.31;59.36;100707.66;5032041;28;45493;-59
2022/06/30 09:00:53;;;;;;;;;2.00;2.00;;;;;17.33;58.76;100714.56;5036508;28;71118;-59
2022/06/30 09:03:18;;;;;;;;;3.00;1.75;;;;;17.35;59.49;100715.34;5034181;28;45340;-59
2022/06/30 09:05:45;;;;;;;;;4.00;3.00;;;;;17.36;58.85;100710.91;5037676;28;45437;-59
2022/06/30 09:08:11;;;;;;;;;4.00;2.75;;;;;17.39;59.07;100708.94;5032235;28;45552;-59
2022/06/30 09:10:36;;;;;;;;;0.50;0.50;;;;;17.39;58.08;100706.28;5034952;28;46280;-59
2022/06/30 09:13:03;;;;;;;;;1.75;1.75;;;;;17.38;58.45;100701.94;5027527;28;45301;-59
2022/06/30 09:15:30;;;;;;;;;2.25;1.75;;;;;17.36;58.57;100697.69;5037723;28;45479;-58
2022/06/30 09:17:56;;;;;;;;;4.25;2.75;;;;;17.36;58.22;100692.41;5034044;28;45552;-59
2022/06/30 09:20:38;;;;;;;;;5.50;2.00;;;;;17.39;58.45;100690.44;5039465;28;46229;-59
2022/06/30 09:23:20;;;;;;;;;5.00;2.25;;;;;17.43;58.16;100696.41;5036171;28;45448;-59
2022/06/30 09:25:50;;;;;;;;;3.75;2.00;;;;;17.42;58.30;100705.25;5035740;28;45356;-59
2022/06/30 09:28:16;;;;;;;;;6.25;3.75;;;;;17.43;58.97;100704.34;5028207;28;45412;-59
2022/06/30 09:30:42;;;;;;;;;1.75;1.75;;;;;17.42;59.11;100711.44;5037919;28;45308;-59
2022/06/30 09:33:09;;;;;;;;;3.00;3.00;;;;;17.46;59.29;100720.03;5027913;28;45424;-59
2022/06/30 09:35:36;;;;;;;;;4.50;3.00;;;;;17.49;59.12;100725.13;5032422;28;45422;-59
2022/06/30 09:38:04;;;;;;;;;5.00;3.00;;;;;17.55;60.20;100731.91;5027888;28;45529;-59
2022/06/30 09:40:35;;;;;;;;;4.75;2.75;;;;;17.62;59.94;100731.47;5034375;28;46287;-60
2022/06/30 09:43:02;;;;;;;;;4.75;4.75;;;;;17.69;59.60;100733.75;5030925;28;45422;-59
2022/06/30 09:45:34;;;;;;;;;5.00;5.00;;;;;17.70;60.38;100725.72;5032816;28;45407;-59
2022/06/30 09:47:59;;;;;;;;;10.75;8.00;;;;;17.74;60.39;100734.34;5027787;28;45284;-59
2022/06/30 09:50:25;;;;;;;;;16.50;14.00;;;;;17.76;60.88;100735.97;5036004;28;45367;-61
2022/06/30 09:53:04;;;;;;;;;9.25;8.00;;;;;17.78;61.35;100728.78;5036756;28;45363;-59
2022/06/30 09:55:40;;;;;;;;;3.75;2.75;;;;;17.78;59.54;100728.78;5034620;28;46628;-58
2022/06/30 09:58:06;;;;;;;;;5.00;4.00;;;;;17.78;59.80;100728.78;5029335;28;45479;-59
2022/06/30 10:00:43;;;;;;;;;5.25;4.50;;;;;17.81;59.83;100727.75;5039911;28;46697;-59
2022/06/30 10:03:08;;;;;;;;;15.25;13.00;;;;;17.82;59.86;100725.03;5033602;28;45358;-59
2022/06/30 10:05:33;;;;;;;;;12.00;7.00;;;;;17.86;60.15;100738.97;5035251;28;45901;-59
2022/06/30 10:07:59;;;;;;;;;8.00;6.00;;;;;17.87;60.43;100731.91;5030709;28;45813;-59
2022/06/30 10:10:25;;;;;;;;;8.00;5.25;;;;;17.88;60.44;100730.94;5033883;28;46243;-59
2022/06/30 10:12:51;;;;;;;;;10.25;5.25;;;;;17.91;60.98;100733.41;5036570;28;45446;-59
2022/06/30 10:15:19;;;;;;;;;4.00;3.00;;;;;17.90;59.98;100739.63;5036711;28;56107;-59
2022/06/30 10:17:51;;;;;;;;;10.50;3.75;;;;;17.84;60.47;100741.66;5013880;28;45427;-59
2022/06/30 10:20:16;;;;;;;;;7.00;4.25;;;;;17.77;60.36;100740.31;5036158;28;45822;-59
2022/06/30 10:22:42;;;;;;;;;6.00;5.00;;;;;17.71;60.08;100748.63;5033650;28;45416;-58
2022/06/30 10:25:08;;;;;;;;;9.25;4.00;;;;;17.70;60.41;100754.84;5038197;28;45383;-59
2022/06/30 10:27:33;;;;;;;;;3.50;3.50;;;;;17.72;60.07;100765.34;5032929;28;45479;-59
2022/06/30 10:30:00;;;;;;;;;9.00;7.25;;;;;17.71;59.93;100769.78;5028547;28;47349;-59
2022/06/30 10:32:53;;;;;;;;;6.25;5.25;;;;;17.71;59.79;100775.09;5034890;28;45789;-59
2022/06/30 10:35:44;;;;;;;;;5.00;5.00;;;;;17.70;60.28;100786.59;5028296;28;45462;-59
2022/06/30 10:38:22;;;;;;;;;5.00;4.00;;;;;17.69;60.87;100784.03;5027461;28;45428;-59
2022/06/30 10:41:13;;;;;;;;;9.00;5.00;;;;;17.64;61.96;100790.44;5033671;28;45272;-60
2022/06/30 10:44:03;;;;;;;;;0.75;0.75;;;;;17.58;61.37;100784.63;5034771;28;45384;-60
2022/06/30 10:46:33;;;;;;;;;9.75;8.25;;;;;17.51;60.37;100784.16;5029879;28;45483;-59
2022/06/30 10:48:59;;;;;;;;;4.75;4.00;;;;;17.38;61.25;100791.88;5029556;28;45645;-59
2022/06/30 10:51:25;;;;;;;;;9.50;8.50;;;;;17.26;60.98;100789.91;5035355;28;46083;-60
2022/06/30 10:53:55;;;;;;;;;6.25;5.00;;;;;17.17;61.91;100798.34;5036010;28;46064;-60
2022/06/30 10:56:23;;;;;;;;;11.00;6.50;;;;;17.14;62.28;100802.00;5031034;28;45241;-60
2022/06/30 10:59:10;;;;;;;;;8.75;5.00;;;;;17.15;62.62;100813.44;5014399;28;45574;-59
2022/06/30 11:01:37;;;;;;;;;18.50;10.00;;;;;17.13;62.88;100807.38;5031687;28;46322;-60
2022/06/30 11:04:03;;;;;;;;;14.75;9.25;;;;;17.14;63.65;100809.06;5030781;28;45234;-58
2022/06/30 11:06:55;;;;;;;;;13.00;9.00;;;;;17.16;63.36;100813.34;5028567;28;45480;-59
2022/06/30 11:09:43;;;;;;;;;20.75;14.75;;;;;17.18;63.62;100808.84;5009414;28;45725;-59
2022/06/30 11:12:08;;;;;;;;;10.50;9.00;;;;;17.20;64.20;100814.03;5026284;28;45237;-59
2022/06/30 11:14:34;;;;;;;;;7.00;6.25;;;;;17.21;62.99;100806.03;5028154;28;45364;-59
2022/06/30 11:16:59;;;;;;;;;7.00;6.00;;;;;17.24;63.01;100808.50;5034215;28;45458;-59
2022/06/30 11:19:25;;;;;;;;;8.25;6.50;;;;;17.30;63.85;100802.03;5028226;28;45603;-59
2022/06/30 11:21:52;;;;;;;;;6.75;6.00;;;;;17.39;62.32;100795.41;5027241;28;45394;-59
2022/06/30 11:24:21;;;;;;;;;7.00;6.00;;;;;17.48;62.40;100804.63;5031931;28;45965;-58
2022/06/30 11:29:31;;;;;;;;;7.00;5.25;;;;;17.58;62.58;100816.38;5028428;28;45500;-59
2022/06/30 11:32:01;;;;;;;;;7.25;4.75;;;;;17.62;62.52;100805.56;5029323;28;45815;-58
2022/06/30 11:34:27;;;;;;;;;9.50;6.00;;;;;17.62;62.11;100796.78;5026843;28;45889;-60
2022/06/30 11:36:52;;;;;;;;;10.25;6.25;;;;;17.68;62.10;100801.72;5033462;28;45372;-59
2022/06/30 11:39:20;;;;;;;;;11.75;6.75;;;;;17.74;61.60;100781.97;5029685;28;45257;-58